Arklow Mill — EIJD9 — position and weather

sailwx.info

Track history (hours):
 
Tides and Currents Weather Stations Pressure Air Temp Water Temp Dewpoint Dewpoint Depression Visibility Wind Speed Wind Dir Waves Ship Positions

Arklow Mill

Last reported at 2015-May-24 07:30 UTC. Time now 2015-May-24 15:07 UTC.
Position N 52°39' W 009°05'.

Length 137 m; draft 8.4 m.

Type: Ship. MMSI: 250002022.

Date/timePositionNaut miles runAvg speedWind from/ knotsBaromVisibWave heightAir tempDewpointWater temp
2015-May-24 07:30N 52°39' W 009°05'81 6.3
2015-May-23 18:33N 51°32' W 010°19'1211.5
2015-May-23 17:33N 51°27' W 010°02'1211.9
2015-May-23 16:33N 51°23' W 009°45'1212.4
2015-May-23 15:34N 51°23' W 009°25'1111.2
2015-May-23 14:33N 51°27' W 009°08'1111.5
2015-May-23 13:33N 51°30' W 008°50'1211.6
2015-May-23 12:33N 51°33' W 008°32'1211.8
2015-May-23 11:33N 51°38' W 008°15'1212.3
2015-May-23 10:33N 51°43' W 007°56'1313.3
2015-May-23 09:33N 51°47' W 007°36'1212.3
2015-May-23 08:33N 51°52' W 007°18'1212.1
2015-May-23 07:33N 51°56' W 006°59'1111.4
2015-May-23 06:33N 52°01' W 006°42'1211.7
2015-May-23 05:33N 52°05' W 006°25'1212.3
2015-May-23 04:33N 52°12' W 006°08'1312.8
2015-May-23 03:33N 52°24' W 006°03'1211.6
2015-May-23 02:33N 52°35' W 005°57'33 7.4
2015-May-22 22:03N 53°08' W 005°56'  
Track history (hours):
 
Tides and Currents Weather Stations Pressure Air Temp Water Temp Dewpoint Dewpoint Depression Visibility Wind Speed Wind Dir Waves Ship Positions

Arklow Mill

Last reported at 2015-May-24 07:30 UTC. Time now 2015-May-24 15:07 UTC.
Position N 52°39' W 009°05'.

Length 137 m; draft 8.4 m.

Type: Ship. MMSI: 250002022.

Date/timePositionNaut miles runAvg speedWind from/ knotsBaromVisibWave heightAir tempDewpointWater temp
2015-May-24 07:30N 52°39' W 009°05'81 6.3
2015-May-23 18:33N 51°32' W 010°19'1211.5
2015-May-23 17:33N 51°27' W 010°02'1211.9
2015-May-23 16:33N 51°23' W 009°45'1212.4
2015-May-23 15:34N 51°23' W 009°25'1111.2
2015-May-23 14:33N 51°27' W 009°08'1111.5
2015-May-23 13:33N 51°30' W 008°50'1211.6
2015-May-23 12:33N 51°33' W 008°32'1211.8
2015-May-23 11:33N 51°38' W 008°15'1212.3
2015-May-23 10:33N 51°43' W 007°56'1313.3
2015-May-23 09:33N 51°47' W 007°36'1212.3
2015-May-23 08:33N 51°52' W 007°18'1212.1
2015-May-23 07:33N 51°56' W 006°59'1111.4
2015-May-23 06:33N 52°01' W 006°42'1211.7
2015-May-23 05:33N 52°05' W 006°25'1212.3
2015-May-23 04:33N 52°12' W 006°08'1312.8
2015-May-23 03:33N 52°24' W 006°03'1211.6
2015-May-23 02:33N 52°35' W 005°57'33 7.4
2015-May-22 22:03N 53°08' W 005°56'  

Dump ship's entire track history